sensor_id;sensor_type;location;lat;lon;timestamp;temperature;humidity
46932;DHT22;32670;51.464;11.964;2023-02-28T00:00:39;20.90;49.70
46932;DHT22;32670;51.464;11.964;2023-02-28T00:03:04;20.90;49.70
46932;DHT22;32670;51.464;11.964;2023-02-28T00:05:30;20.90;49.70
46932;DHT22;32670;51.464;11.964;2023-02-28T00:07:56;20.90;49.70
46932;DHT22;32670;51.464;11.964;2023-02-28T00:10:26;20.90;49.80
46932;DHT22;32670;51.464;11.964;2023-02-28T00:12:54;20.90;49.80
46932;DHT22;32670;51.464;11.964;2023-02-28T00:15:22;20.90;49.70
46932;DHT22;32670;51.464;11.964;2023-02-28T00:17:48;21.00;49.80
46932;DHT22;32670;51.464;11.964;2023-02-28T00:20:13;20.90;49.80
46932;DHT22;32670;51.464;11.964;2023-02-28T00:22:42;20.90;50.10
46932;DHT22;32670;51.464;11.964;2023-02-28T00:25:09;20.90;50.20
46932;DHT22;32670;51.464;11.964;2023-02-28T00:27:36;20.90;50.10
46932;DHT22;32670;51.464;11.964;2023-02-28T00:30:02;20.90;50.30
46932;DHT22;32670;51.464;11.964;2023-02-28T00:32:28;21.00;50.10
46932;DHT22;32670;51.464;11.964;2023-02-28T00:34:53;21.00;50.20
46932;DHT22;32670;51.464;11.964;2023-02-28T00:37:19;21.00;50.20
46932;DHT22;32670;51.464;11.964;2023-02-28T00:39:44;21.00;50.10
46932;DHT22;32670;51.464;11.964;2023-02-28T00:42:10;21.00;50.10
46932;DHT22;32670;51.464;11.964;2023-02-28T00:44:35;21.00;50.20
46932;DHT22;32670;51.464;11.964;2023-02-28T00:47:01;21.00;50.30
46932;DHT22;32670;51.464;11.964;2023-02-28T00:49:27;21.00;50.20
46932;DHT22;32670;51.464;11.964;2023-02-28T00:51:53;21.00;50.30
46932;DHT22;32670;51.464;11.964;2023-02-28T00:54:19;21.00;50.40
46932;DHT22;32670;51.464;11.964;2023-02-28T00:56:45;21.00;50.40
46932;DHT22;32670;51.464;11.964;2023-02-28T00:59:15;21.00;50.50
46932;DHT22;32670;51.464;11.964;2023-02-28T01:01:42;21.00;50.40
46932;DHT22;32670;51.464;11.964;2023-02-28T01:04:08;21.00;50.40
46932;DHT22;32670;51.464;11.964;2023-02-28T01:06:33;21.10;50.60
46932;DHT22;32670;51.464;11.964;2023-02-28T01:08:59;21.00;50.50
46932;DHT22;32670;51.464;11.964;2023-02-28T01:11:25;21.10;50.60
46932;DHT22;32670;51.464;11.964;2023-02-28T01:13:50;21.00;50.50
46932;DHT22;32670;51.464;11.964;2023-02-28T01:16:16;21.00;50.60
46932;DHT22;32670;51.464;11.964;2023-02-28T01:18:42;21.00;50.60
46932;DHT22;32670;51.464;11.964;2023-02-28T01:21:13;21.00;50.80
46932;DHT22;32670;51.464;11.964;2023-02-28T01:23:39;21.00;51.20
46932;DHT22;32670;51.464;11.964;2023-02-28T01:26:07;21.10;50.70
46932;DHT22;32670;51.464;11.964;2023-02-28T01:28:33;21.00;50.10
46932;DHT22;32670;51.464;11.964;2023-02-28T01:30:59;21.00;50.50
46932;DHT22;32670;51.464;11.964;2023-02-28T01:33:24;21.10;50.70
46932;DHT22;32670;51.464;11.964;2023-02-28T01:35:57;21.10;50.70
46932;DHT22;32670;51.464;11.964;2023-02-28T01:38:23;21.10;51.00
46932;DHT22;32670;51.464;11.964;2023-02-28T01:40:49;21.10;51.00
46932;DHT22;32670;51.464;11.964;2023-02-28T01:43:27;21.10;51.20
46932;DHT22;32670;51.464;11.964;2023-02-28T01:45:54;21.10;51.20
46932;DHT22;32670;51.464;11.964;2023-02-28T01:48:25;21.10;51.20
46932;DHT22;32670;51.464;11.964;2023-02-28T01:50:52;21.10;51.20
46932;DHT22;32670;51.464;11.964;2023-02-28T01:53:21;21.10;51.30
46932;DHT22;32670;51.464;11.964;2023-02-28T01:55:51;21.20;51.30
46932;DHT22;32670;51.464;11.964;2023-02-28T01:58:18;21.20;51.20
46932;DHT22;32670;51.464;11.964;2023-02-28T02:00:43;21.10;51.20
46932;DHT22;32670;51.464;11.964;2023-02-28T02:03:12;21.20;51.20
46932;DHT22;32670;51.464;11.964;2023-02-28T02:05:39;21.10;51.20
46932;DHT22;32670;51.464;11.964;2023-02-28T02:08:08;21.10;51.20
46932;DHT22;32670;51.464;11.964;2023-02-28T02:10:46;21.20;51.30
46932;DHT22;32670;51.464;11.964;2023-02-28T02:25:19;21.20;50.70
46932;DHT22;32670;51.464;11.964;2023-02-28T02:34:17;21.20;51.40
46932;DHT22;32670;51.464;11.964;2023-02-28T02:36:59;21.20;51.50
46932;DHT22;32670;51.464;11.964;2023-02-28T02:39:31;21.20;51.40
46932;DHT22;32670;51.464;11.964;2023-02-28T02:42:08;21.20;51.40
46932;DHT22;32670;51.464;11.964;2023-02-28T02:44:51;21.20;51.30
46932;DHT22;32670;51.464;11.964;2023-02-28T02:47:24;21.20;51.30
46932;DHT22;32670;51.464;11.964;2023-02-28T02:49:55;21.20;51.30
46932;DHT22;32670;51.464;11.964;2023-02-28T02:52:25;21.20;51.40
46932;DHT22;32670;51.464;11.964;2023-02-28T02:54:55;21.20;51.60
46932;DHT22;32670;51.464;11.964;2023-02-28T02:57:26;21.20;51.50
46932;DHT22;32670;51.464;11.964;2023-02-28T02:59:55;21.20;51.60
46932;DHT22;32670;51.464;11.964;2023-02-28T03:02:22;21.20;51.70
46932;DHT22;32670;51.464;11.964;2023-02-28T03:04:56;21.20;51.70
46932;DHT22;32670;51.464;11.964;2023-02-28T03:07:26;21.20;51.60
46932;DHT22;32670;51.464;11.964;2023-02-28T03:09:52;21.20;51.70
46932;DHT22;32670;51.464;11.964;2023-02-28T03:12:18;21.20;51.90
46932;DHT22;32670;51.464;11.964;2023-02-28T03:15:07;21.20;51.90
46932;DHT22;32670;51.464;11.964;2023-02-28T03:17:52;21.20;52.00
46932;DHT22;32670;51.464;11.964;2023-02-28T03:20:32;21.20;52.10
46932;DHT22;32670;51.464;11.964;2023-02-28T03:23:10;21.20;51.90
46932;DHT22;32670;51.464;11.964;2023-02-28T03:25:56;21.20;52.20
46932;DHT22;32670;51.464;11.964;2023-02-28T03:28:38;21.20;51.90
46932;DHT22;32670;51.464;11.964;2023-02-28T03:31:13;21.20;52.00
46932;DHT22;32670;51.464;11.964;2023-02-28T03:33:51;21.20;52.50
46932;DHT22;32670;51.464;11.964;2023-02-28T03:36:33;21.20;52.00
46932;DHT22;32670;51.464;11.964;2023-02-28T03:39:05;21.20;52.10
46932;DHT22;32670;51.464;11.964;2023-02-28T03:41:43;21.20;52.20
46932;DHT22;32670;51.464;11.964;2023-02-28T03:44:29;21.30;52.30
46932;DHT22;32670;51.464;11.964;2023-02-28T03:47:05;21.30;52.40
46932;DHT22;32670;51.464;11.964;2023-02-28T03:49:36;21.20;52.40
46932;DHT22;32670;51.464;11.964;2023-02-28T03:52:07;21.30;52.40
46932;DHT22;32670;51.464;11.964;2023-02-28T03:54:39;21.20;52.30
46932;DHT22;32670;51.464;11.964;2023-02-28T03:57:29;21.20;52.40
46932;DHT22;32670;51.464;11.964;2023-02-28T04:00:11;21.20;52.40
46932;DHT22;32670;51.464;11.964;2023-02-28T04:02:39;21.30;52.40
46932;DHT22;32670;51.464;11.964;2023-02-28T04:05:05;21.30;52.50
46932;DHT22;32670;51.464;11.964;2023-02-28T04:07:32;21.20;52.30
46932;DHT22;32670;51.464;11.964;2023-02-28T04:09:58;21.30;52.40
46932;DHT22;32670;51.464;11.964;2023-02-28T04:12:24;21.30;52.40
46932;DHT22;32670;51.464;11.964;2023-02-28T04:14:49;21.30;52.50
46932;DHT22;32670;51.464;11.964;2023-02-28T04:17:15;21.30;52.50
46932;DHT22;32670;51.464;11.964;2023-02-28T04:19:41;21.30;52.90
46932;DHT22;32670;51.464;11.964;2023-02-28T04:22:08;21.30;52.80
46932;DHT22;32670;51.464;11.964;2023-02-28T04:24:34;21.30;53.00
46932;DHT22;32670;51.464;11.964;2023-02-28T04:27:00;21.30;53.00
46932;DHT22;32670;51.464;11.964;2023-02-28T04:29:28;21.30;52.80
46932;DHT22;32670;51.464;11.964;2023-02-28T04:31:55;21.30;52.70
46932;DHT22;32670;51.464;11.964;2023-02-28T04:34:23;21.30;52.70
46932;DHT22;32670;51.464;11.964;2023-02-28T04:36:50;21.30;52.70
46932;DHT22;32670;51.464;11.964;2023-02-28T04:39:16;21.30;52.70
46932;DHT22;32670;51.464;11.964;2023-02-28T04:41:44;21.30;53.10
46932;DHT22;32670;51.464;11.964;2023-02-28T04:44:10;21.30;52.60
46932;DHT22;32670;51.464;11.964;2023-02-28T04:46:35;21.30;52.60
46932;DHT22;32670;51.464;11.964;2023-02-28T04:49:01;21.30;52.60
46932;DHT22;32670;51.464;11.964;2023-02-28T04:51:26;21.30;52.70
46932;DHT22;32670;51.464;11.964;2023-02-28T04:53:54;21.30;52.60
46932;DHT22;32670;51.464;11.964;2023-02-28T04:56:20;21.30;52.60
46932;DHT22;32670;51.464;11.964;2023-02-28T04:58:46;21.30;52.70
46932;DHT22;32670;51.464;11.964;2023-02-28T05:01:32;21.40;52.70
46932;DHT22;32670;51.464;11.964;2023-02-28T05:03:59;21.30;52.90
46932;DHT22;32670;51.464;11.964;2023-02-28T05:06:27;21.30;52.50
46932;DHT22;32670;51.464;11.964;2023-02-28T05:08:53;21.30;52.90
46932;DHT22;32670;51.464;11.964;2023-02-28T05:11:22;21.30;52.90
46932;DHT22;32670;51.464;11.964;2023-02-28T05:13:49;21.40;52.90
46932;DHT22;32670;51.464;11.964;2023-02-28T05:16:15;21.30;52.90
46932;DHT22;32670;51.464;11.964;2023-02-28T05:18:41;21.30;52.80
46932;DHT22;32670;51.464;11.964;2023-02-28T05:21:22;21.30;52.90
46932;DHT22;32670;51.464;11.964;2023-02-28T05:23:49;21.40;53.00
46932;DHT22;32670;51.464;11.964;2023-02-28T05:26:15;21.30;53.00
46932;DHT22;32670;51.464;11.964;2023-02-28T05:28:40;21.40;53.40
46932;DHT22;32670;51.464;11.964;2023-02-28T05:31:05;21.30;53.30
46932;DHT22;32670;51.464;11.964;2023-02-28T05:33:31;21.40;53.40
46932;DHT22;32670;51.464;11.964;2023-02-28T05:35:56;21.40;53.50
46932;DHT22;32670;51.464;11.964;2023-02-28T05:38:22;21.40;53.30
46932;DHT22;32670;51.464;11.964;2023-02-28T05:40:47;21.40;53.50
46932;DHT22;32670;51.464;11.964;2023-02-28T05:43:13;21.40;53.40
46932;DHT22;32670;51.464;11.964;2023-02-28T05:45:38;21.40;53.50
46932;DHT22;32670;51.464;11.964;2023-02-28T05:48:04;21.40;52.60
46932;DHT22;32670;51.464;11.964;2023-02-28T05:50:29;21.40;52.00
46932;DHT22;32670;51.464;11.964;2023-02-28T05:52:55;21.40;52.60
46932;DHT22;32670;51.464;11.964;2023-02-28T05:55:20;21.40;53.00
46932;DHT22;32670;51.464;11.964;2023-02-28T05:57:46;21.40;53.00
46932;DHT22;32670;51.464;11.964;2023-02-28T06:00:12;21.40;53.00
46932;DHT22;32670;51.464;11.964;2023-02-28T06:02:40;21.40;53.00
46932;DHT22;32670;51.464;11.964;2023-02-28T06:05:09;21.40;53.20
46932;DHT22;32670;51.464;11.964;2023-02-28T06:07:37;21.40;53.30
46932;DHT22;32670;51.464;11.964;2023-02-28T06:10:04;21.50;53.10
46932;DHT22;32670;51.464;11.964;2023-02-28T06:12:29;21.40;53.50
46932;DHT22;32670;51.464;11.964;2023-02-28T06:14:55;21.40;53.40
46932;DHT22;32670;51.464;11.964;2023-02-28T06:17:20;21.50;53.50
46932;DHT22;32670;51.464;11.964;2023-02-28T06:19:46;21.50;53.70
46932;DHT22;32670;51.464;11.964;2023-02-28T06:22:13;21.50;53.90
46932;DHT22;32670;51.464;11.964;2023-02-28T06:24:38;21.50;53.70
46932;DHT22;32670;51.464;11.964;2023-02-28T06:27:04;21.50;52.70
46932;DHT22;32670;51.464;11.964;2023-02-28T06:29:31;21.50;53.20
46932;DHT22;32670;51.464;11.964;2023-02-28T06:31:57;21.50;53.10
46932;DHT22;32670;51.464;11.964;2023-02-28T06:34:22;21.20;37.00
46932;DHT22;32670;51.464;11.964;2023-02-28T06:36:50;20.60;31.60
46932;DHT22;32670;51.464;11.964;2023-02-28T06:39:16;20.10;30.00
46932;DHT22;32670;51.464;11.964;2023-02-28T06:41:41;19.50;29.00
46932;DHT22;32670;51.464;11.964;2023-02-28T06:44:12;19.10;28.40
46932;DHT22;32670;51.464;11.964;2023-02-28T06:46:42;18.90;28.30
46932;DHT22;32670;51.464;11.964;2023-02-28T06:49:08;18.70;27.90
46932;DHT22;32670;51.464;11.964;2023-02-28T06:51:35;18.40;27.70
46932;DHT22;32670;51.464;11.964;2023-02-28T06:54:01;18.20;27.80
46932;DHT22;32670;51.464;11.964;2023-02-28T06:56:26;18.00;27.80
46932;DHT22;32670;51.464;11.964;2023-02-28T06:58:52;17.80;27.50
46932;DHT22;32670;51.464;11.964;2023-02-28T07:01:21;17.60;27.80
46932;DHT22;32670;51.464;11.964;2023-02-28T07:03:48;17.60;27.70
46932;DHT22;32670;51.464;11.964;2023-02-28T07:06:17;17.40;27.70
46932;DHT22;32670;51.464;11.964;2023-02-28T07:08:43;17.30;27.90
46932;DHT22;32670;51.464;11.964;2023-02-28T07:11:08;17.30;28.20
46932;DHT22;32670;51.464;11.964;2023-02-28T07:13:34;17.20;27.80
46932;DHT22;32670;51.464;11.964;2023-02-28T07:16:03;17.10;27.80
46932;DHT22;32670;51.464;11.964;2023-02-28T07:18:29;17.10;28.10
46932;DHT22;32670;51.464;11.964;2023-02-28T07:20:55;17.10;28.00
46932;DHT22;32670;51.464;11.964;2023-02-28T07:23:21;17.00;28.00
46932;DHT22;32670;51.464;11.964;2023-02-28T07:25:47;17.00;28.00
46932;DHT22;32670;51.464;11.964;2023-02-28T07:28:13;16.90;27.90
46932;DHT22;32670;51.464;11.964;2023-02-28T07:30:39;16.80;27.90
46932;DHT22;32670;51.464;11.964;2023-02-28T07:33:05;16.80;28.00
46932;DHT22;32670;51.464;11.964;2023-02-28T07:35:31;16.80;28.10
46932;DHT22;32670;51.464;11.964;2023-02-28T07:37:59;16.80;29.10
46932;DHT22;32670;51.464;11.964;2023-02-28T07:40:25;17.00;30.60
46932;DHT22;32670;51.464;11.964;2023-02-28T07:42:51;17.30;31.60
46932;DHT22;32670;51.464;11.964;2023-02-28T07:45:17;17.60;32.20
46932;DHT22;32670;51.464;11.964;2023-02-28T07:47:43;17.80;32.50
46932;DHT22;32670;51.464;11.964;2023-02-28T07:50:13;18.00;32.70
46932;DHT22;32670;51.464;11.964;2023-02-28T07:52:39;18.20;33.10
46932;DHT22;32670;51.464;11.964;2023-02-28T07:55:06;18.30;33.40
46932;DHT22;32670;51.464;11.964;2023-02-28T07:57:32;18.40;33.70
46932;DHT22;32670;51.464;11.964;2023-02-28T07:59:57;18.60;34.00
46932;DHT22;32670;51.464;11.964;2023-02-28T08:02:23;18.60;34.20
46932;DHT22;32670;51.464;11.964;2023-02-28T08:04:48;18.70;34.40
46932;DHT22;32670;51.464;11.964;2023-02-28T08:07:15;18.70;34.70
46932;DHT22;32670;51.464;11.964;2023-02-28T08:09:41;18.80;34.90
46932;DHT22;32670;51.464;11.964;2023-02-28T08:12:07;18.80;35.10
46932;DHT22;32670;51.464;11.964;2023-02-28T08:14:34;18.90;35.30
46932;DHT22;32670;51.464;11.964;2023-02-28T08:16:59;18.90;35.70
46932;DHT22;32670;51.464;11.964;2023-02-28T08:19:25;18.90;35.80
46932;DHT22;32670;51.464;11.964;2023-02-28T08:21:50;19.00;36.10
46932;DHT22;32670;51.464;11.964;2023-02-28T08:24:16;19.10;36.20
46932;DHT22;32670;51.464;11.964;2023-02-28T08:26:41;19.10;36.40
46932;DHT22;32670;51.464;11.964;2023-02-28T08:29:07;19.10;37.20
46932;DHT22;32670;51.464;11.964;2023-02-28T08:31:32;19.10;36.80
46932;DHT22;32670;51.464;11.964;2023-02-28T08:33:58;19.20;37.10
46932;DHT22;32670;51.464;11.964;2023-02-28T08:36:25;19.20;37.20
46932;DHT22;32670;51.464;11.964;2023-02-28T08:38:51;19.20;37.00
46932;DHT22;32670;51.464;11.964;2023-02-28T08:41:16;19.20;37.00
46932;DHT22;32670;51.464;11.964;2023-02-28T08:43:45;19.30;37.50
46932;DHT22;32670;51.464;11.964;2023-02-28T08:46:12;19.30;37.50
46932;DHT22;32670;51.464;11.964;2023-02-28T08:48:39;19.30;37.40
46932;DHT22;32670;51.464;11.964;2023-02-28T08:51:10;19.30;37.50
46932;DHT22;32670;51.464;11.964;2023-02-28T08:53:37;19.30;37.90
46932;DHT22;32670;51.464;11.964;2023-02-28T08:56:13;19.30;38.50
46932;DHT22;32670;51.464;11.964;2023-02-28T08:58:40;19.40;38.50
46932;DHT22;32670;51.464;11.964;2023-02-28T09:01:11;19.40;38.50
46932;DHT22;32670;51.464;11.964;2023-02-28T09:03:37;19.40;38.30
46932;DHT22;32670;51.464;11.964;2023-02-28T09:06:03;19.40;38.50
46932;DHT22;32670;51.464;11.964;2023-02-28T09:08:30;19.50;38.50
46932;DHT22;32670;51.464;11.964;2023-02-28T09:10:56;19.50;38.60
46932;DHT22;32670;51.464;11.964;2023-02-28T09:13:23;19.50;39.30
46932;DHT22;32670;51.464;11.964;2023-02-28T09:15:49;19.50;39.00
46932;DHT22;32670;51.464;11.964;2023-02-28T09:18:15;19.50;38.90
46932;DHT22;32670;51.464;11.964;2023-02-28T09:20:42;19.50;39.00
46932;DHT22;32670;51.464;11.964;2023-02-28T09:23:08;19.50;39.00
46932;DHT22;32670;51.464;11.964;2023-02-28T09:25:34;19.50;39.10
46932;DHT22;32670;51.464;11.964;2023-02-28T09:28:00;19.50;39.10
46932;DHT22;32670;51.464;11.964;2023-02-28T09:30:25;19.60;39.30
46932;DHT22;32670;51.464;11.964;2023-02-28T09:32:51;19.50;39.30
46932;DHT22;32670;51.464;11.964;2023-02-28T09:35:20;19.60;39.50
46932;DHT22;32670;51.464;11.964;2023-02-28T09:37:48;19.60;39.60
46932;DHT22;32670;51.464;11.964;2023-02-28T09:40:14;19.60;39.50
46932;DHT22;32670;51.464;11.964;2023-02-28T09:42:44;19.60;39.40
46932;DHT22;32670;51.464;11.964;2023-02-28T09:45:20;19.60;39.50
46932;DHT22;32670;51.464;11.964;2023-02-28T09:47:52;19.60;39.50
46932;DHT22;32670;51.464;11.964;2023-02-28T09:52:50;19.60;39.60
46932;DHT22;32670;51.464;11.964;2023-02-28T09:57:54;19.60;39.50
46932;DHT22;32670;51.464;11.964;2023-02-28T10:00:32;19.70;39.70
46932;DHT22;32670;51.464;11.964;2023-02-28T10:03:12;19.70;39.60
46932;DHT22;32670;51.464;11.964;2023-02-28T10:08:43;19.70;39.70
46932;DHT22;32670;51.464;11.964;2023-02-28T10:11:15;19.60;39.70
46932;DHT22;32670;51.464;11.964;2023-02-28T10:16:37;19.70;39.80
46932;DHT22;32670;51.464;11.964;2023-02-28T10:22:12;19.70;39.90
46932;DHT22;32670;51.464;11.964;2023-02-28T10:24:42;19.70;39.80
46932;DHT22;32670;51.464;11.964;2023-02-28T10:27:16;19.70;39.80
46932;DHT22;32670;51.464;11.964;2023-02-28T10:29:50;19.70;39.90
46932;DHT22;32670;51.464;11.964;2023-02-28T10:32:25;19.70;39.90
46932;DHT22;32670;51.464;11.964;2023-02-28T10:37:32;19.70;40.00
46932;DHT22;32670;51.464;11.964;2023-02-28T10:40:07;19.70;40.00
46932;DHT22;32670;51.464;11.964;2023-02-28T10:45:37;19.70;39.90
46932;DHT22;32670;51.464;11.964;2023-02-28T10:50:44;19.70;40.10
46932;DHT22;32670;51.464;11.964;2023-02-28T10:56:23;19.80;40.50
46932;DHT22;32670;51.464;11.964;2023-02-28T11:01:43;19.80;40.40
46932;DHT22;32670;51.464;11.964;2023-02-28T11:04:33;19.80;40.50
46932;DHT22;32670;51.464;11.964;2023-02-28T11:07:18;19.80;40.40
46932;DHT22;32670;51.464;11.964;2023-02-28T11:09:50;19.80;40.50
46932;DHT22;32670;51.464;11.964;2023-02-28T11:14:57;19.80;40.50
46932;DHT22;32670;51.464;11.964;2023-02-28T11:17:26;19.80;40.40
46932;DHT22;32670;51.464;11.964;2023-02-28T11:19:55;19.80;40.40
46932;DHT22;32670;51.464;11.964;2023-02-28T11:22:35;19.80;40.50
46932;DHT22;32670;51.464;11.964;2023-02-28T11:25:08;19.80;40.50
46932;DHT22;32670;51.464;11.964;2023-02-28T11:27:49;19.80;40.50
46932;DHT22;32670;51.464;11.964;2023-02-28T11:30:36;19.80;40.40
46932;DHT22;32670;51.464;11.964;2023-02-28T11:33:29;19.80;40.50
46932;DHT22;32670;51.464;11.964;2023-02-28T11:36:08;19.90;40.60
46932;DHT22;32670;51.464;11.964;2023-02-28T11:38:35;19.80;40.40
46932;DHT22;32670;51.464;11.964;2023-02-28T11:44:04;19.90;40.60
46932;DHT22;32670;51.464;11.964;2023-02-28T11:46:49;19.90;40.60
46932;DHT22;32670;51.464;11.964;2023-02-28T11:49:28;19.90;40.60
46932;DHT22;32670;51.464;11.964;2023-02-28T11:54:40;19.90;40.60
46932;DHT22;32670;51.464;11.964;2023-02-28T11:57:35;19.90;40.60
46932;DHT22;32670;51.464;11.964;2023-02-28T12:05:29;19.90;40.70
46932;DHT22;32670;51.464;11.964;2023-02-28T12:08:34;19.90;40.70
46932;DHT22;32670;51.464;11.964;2023-02-28T12:11:33;19.90;40.60
46932;DHT22;32670;51.464;11.964;2023-02-28T12:14:25;19.90;40.70
46932;DHT22;32670;51.464;11.964;2023-02-28T12:17:21;19.90;40.70
46932;DHT22;32670;51.464;11.964;2023-02-28T12:22:55;20.00;40.70
46932;DHT22;32670;51.464;11.964;2023-02-28T12:28:12;19.90;40.70
46932;DHT22;32670;51.464;11.964;2023-02-28T12:30:45;19.90;40.70
46932;DHT22;32670;51.464;11.964;2023-02-28T12:33:17;19.90;40.70
46932;DHT22;32670;51.464;11.964;2023-02-28T12:35:51;19.90;40.80
46932;DHT22;32670;51.464;11.964;2023-02-28T12:38:36;19.90;40.70
46932;DHT22;32670;51.464;11.964;2023-02-28T12:41:09;19.90;40.80
46932;DHT22;32670;51.464;11.964;2023-02-28T12:43:43;19.90;40.80
46932;DHT22;32670;51.464;11.964;2023-02-28T12:46:18;19.90;40.80
46932;DHT22;32670;51.464;11.964;2023-02-28T12:48:49;20.00;40.80
46932;DHT22;32670;51.464;11.964;2023-02-28T12:51:17;19.90;40.80
46932;DHT22;32670;51.464;11.964;2023-02-28T12:56:36;20.00;40.90
46932;DHT22;32670;51.464;11.964;2023-02-28T13:08:33;20.00;41.50
46932;DHT22;32670;51.464;11.964;2023-02-28T13:11:02;20.00;41.40
46932;DHT22;32670;51.464;11.964;2023-02-28T13:13:29;20.00;41.30
46932;DHT22;32670;51.464;11.964;2023-02-28T13:16:04;20.00;41.30
46932;DHT22;32670;51.464;11.964;2023-02-28T13:18:45;20.00;41.30
46932;DHT22;32670;51.464;11.964;2023-02-28T13:21:28;20.00;41.30
46932;DHT22;32670;51.464;11.964;2023-02-28T13:23:58;20.00;40.90
46932;DHT22;32670;51.464;11.964;2023-02-28T13:34:31;20.00;40.70
46932;DHT22;32670;51.464;11.964;2023-02-28T13:39:51;20.00;40.80
46932;DHT22;32670;51.464;11.964;2023-02-28T13:42:35;20.00;40.80
46932;DHT22;32670;51.464;11.964;2023-02-28T13:47:49;20.00;40.80
46932;DHT22;32670;51.464;11.964;2023-02-28T13:50:37;20.00;40.90
46932;DHT22;32670;51.464;11.964;2023-02-28T13:55:45;20.00;40.90
46932;DHT22;32670;51.464;11.964;2023-02-28T14:01:23;20.00;40.90
46932;DHT22;32670;51.464;11.964;2023-02-28T14:07:01;20.00;41.00
46932;DHT22;32670;51.464;11.964;2023-02-28T14:09:34;20.00;40.90
46932;DHT22;32670;51.464;11.964;2023-02-28T14:15:25;20.00;41.00
46932;DHT22;32670;51.464;11.964;2023-02-28T14:17:55;20.00;40.90
46932;DHT22;32670;51.464;11.964;2023-02-28T14:20:22;20.10;41.10
46932;DHT22;32670;51.464;11.964;2023-02-28T14:23:10;20.00;41.00
46932;DHT22;32670;51.464;11.964;2023-02-28T14:31:03;20.00;41.00
46932;DHT22;32670;51.464;11.964;2023-02-28T14:36:23;20.00;41.00
46932;DHT22;32670;51.464;11.964;2023-02-28T14:38:56;20.10;41.10
46932;DHT22;32670;51.464;11.964;2023-02-28T14:41:28;20.00;41.00
46932;DHT22;32670;51.464;11.964;2023-02-28T14:43:56;20.00;41.00
46932;DHT22;32670;51.464;11.964;2023-02-28T14:46:25;20.10;41.10
46932;DHT22;32670;51.464;11.964;2023-02-28T14:48:54;20.10;41.10
46932;DHT22;32670;51.464;11.964;2023-02-28T14:51:22;20.10;41.10
46932;DHT22;32670;51.464;11.964;2023-02-28T14:53:57;20.10;41.10
46932;DHT22;32670;51.464;11.964;2023-02-28T14:56:28;20.00;41.00
46932;DHT22;32670;51.464;11.964;2023-02-28T14:58:57;20.10;41.10
46932;DHT22;32670;51.464;11.964;2023-02-28T15:01:24;20.10;41.10
46932;DHT22;32670;51.464;11.964;2023-02-28T15:04:01;20.10;41.20
46932;DHT22;32670;51.464;11.964;2023-02-28T15:06:28;20.10;41.10
46932;DHT22;32670;51.464;11.964;2023-02-28T15:09:14;20.10;41.20
46932;DHT22;32670;51.464;11.964;2023-02-28T15:11:40;20.10;41.20
46932;DHT22;32670;51.464;11.964;2023-02-28T15:14:06;20.10;41.20
46932;DHT22;32670;51.464;11.964;2023-02-28T15:16:35;20.10;41.20
46932;DHT22;32670;51.464;11.964;2023-02-28T15:19:22;20.10;41.20
46932;DHT22;32670;51.464;11.964;2023-02-28T15:21:54;20.10;41.20
46932;DHT22;32670;51.464;11.964;2023-02-28T15:24:33;20.10;41.10
46932;DHT22;32670;51.464;11.964;2023-02-28T15:27:07;20.10;41.20
46932;DHT22;32670;51.464;11.964;2023-02-28T15:29:43;20.10;41.20
46932;DHT22;32670;51.464;11.964;2023-02-28T15:32:24;20.10;41.20
46932;DHT22;32670;51.464;11.964;2023-02-28T15:34:50;20.10;41.10
46932;DHT22;32670;51.464;11.964;2023-02-28T15:37:45;20.10;41.20
46932;DHT22;32670;51.464;11.964;2023-02-28T15:40:23;20.10;41.20
46932;DHT22;32670;51.464;11.964;2023-02-28T15:45:38;20.10;41.30
46932;DHT22;32670;51.464;11.964;2023-02-28T15:48:15;20.10;41.20
46932;DHT22;32670;51.464;11.964;2023-02-28T15:50:41;20.10;41.20
46932;DHT22;32670;51.464;11.964;2023-02-28T15:53:13;20.10;41.30
46932;DHT22;32670;51.464;11.964;2023-02-28T15:55:40;20.10;41.20
46932;DHT22;32670;51.464;11.964;2023-02-28T15:58:11;20.10;41.30
46932;DHT22;32670;51.464;11.964;2023-02-28T16:00:38;20.10;41.30
46932;DHT22;32670;51.464;11.964;2023-02-28T16:03:24;20.10;41.30
46932;DHT22;32670;51.464;11.964;2023-02-28T16:06:08;20.10;41.30
46932;DHT22;32670;51.464;11.964;2023-02-28T16:08:34;20.10;41.50
46932;DHT22;32670;51.464;11.964;2023-02-28T16:10:59;20.10;41.30
46932;DHT22;32670;51.464;11.964;2023-02-28T16:13:25;20.10;41.30
46932;DHT22;32670;51.464;11.964;2023-02-28T16:15:50;20.10;41.30
46932;DHT22;32670;51.464;11.964;2023-02-28T16:18:16;20.10;41.30
46932;DHT22;32670;51.464;11.964;2023-02-28T16:20:42;20.10;41.30
46932;DHT22;32670;51.464;11.964;2023-02-28T16:23:09;20.10;41.40
46932;DHT22;32670;51.464;11.964;2023-02-28T16:25:37;20.10;41.30
46932;DHT22;32670;51.464;11.964;2023-02-28T16:28:05;20.10;41.40
46932;DHT22;32670;51.464;11.964;2023-02-28T16:30:33;20.10;41.30
46932;DHT22;32670;51.464;11.964;2023-02-28T16:32:59;20.10;41.30
46932;DHT22;32670;51.464;11.964;2023-02-28T16:35:24;20.10;41.40
46932;DHT22;32670;51.464;11.964;2023-02-28T16:37:51;20.10;41.30
46932;DHT22;32670;51.464;11.964;2023-02-28T16:40:23;20.10;41.40
46932;DHT22;32670;51.464;11.964;2023-02-28T16:42:51;20.10;41.40
46932;DHT22;32670;51.464;11.964;2023-02-28T16:45:23;20.10;41.40
46932;DHT22;32670;51.464;11.964;2023-02-28T16:47:49;20.10;41.40
46932;DHT22;32670;51.464;11.964;2023-02-28T16:50:20;20.10;41.40
46932;DHT22;32670;51.464;11.964;2023-02-28T16:52:46;20.20;41.40
46932;DHT22;32670;51.464;11.964;2023-02-28T16:55:13;20.10;41.30
46932;DHT22;32670;51.464;11.964;2023-02-28T16:57:39;20.10;41.40
46932;DHT22;32670;51.464;11.964;2023-02-28T17:00:07;20.10;41.40
46932;DHT22;32670;51.464;11.964;2023-02-28T17:02:33;20.10;41.40
46932;DHT22;32670;51.464;11.964;2023-02-28T17:04:59;20.10;41.40
46932;DHT22;32670;51.464;11.964;2023-02-28T17:07:24;20.10;41.50
46932;DHT22;32670;51.464;11.964;2023-02-28T17:09:50;20.10;41.50
46932;DHT22;32670;51.464;11.964;2023-02-28T17:12:15;20.10;41.40
46932;DHT22;32670;51.464;11.964;2023-02-28T17:14:41;20.10;41.40
46932;DHT22;32670;51.464;11.964;2023-02-28T17:17:07;20.10;41.40
46932;DHT22;32670;51.464;11.964;2023-02-28T17:19:33;20.10;41.40
46932;DHT22;32670;51.464;11.964;2023-02-28T17:21:59;20.10;41.50
46932;DHT22;32670;51.464;11.964;2023-02-28T17:24:25;20.10;41.50
46932;DHT22;32670;51.464;11.964;2023-02-28T17:26:51;20.10;41.40